sensor_id;sensor_type;location;lat;lon;timestamp;P1;durP1;ratioP1;P2;durP2;ratioP2
44358;SDS011;30077;52.474;13.326;2022-08-19T00:01:39;16.20;;;14.57;;
44358;SDS011;30077;52.474;13.326;2022-08-19T00:06:41;19.05;;;15.65;;
44358;SDS011;30077;52.474;13.326;2022-08-19T00:11:43;19.90;;;17.85;;
44358;SDS011;30077;52.474;13.326;2022-08-19T00:16:44;18.23;;;16.33;;
44358;SDS011;30077;52.474;13.326;2022-08-19T00:21:46;19.27;;;15.98;;
44358;SDS011;30077;52.474;13.326;2022-08-19T00:26:46;19.08;;;16.58;;
44358;SDS011;30077;52.474;13.326;2022-08-19T00:31:47;18.35;;;16.33;;
44358;SDS011;30077;52.474;13.326;2022-08-19T00:36:47;17.75;;;15.95;;
44358;SDS011;30077;52.474;13.326;2022-08-19T00:41:48;17.80;;;15.93;;
44358;SDS011;30077;52.474;13.326;2022-08-19T00:46:50;17.83;;;15.85;;
44358;SDS011;30077;52.474;13.326;2022-08-19T00:51:55;18.85;;;16.85;;
44358;SDS011;30077;52.474;13.326;2022-08-19T00:57:00;18.88;;;16.92;;
44358;SDS011;30077;52.474;13.326;2022-08-19T01:02:06;20.42;;;18.23;;
44358;SDS011;30077;52.474;13.326;2022-08-19T01:07:07;20.88;;;18.65;;
44358;SDS011;30077;52.474;13.326;2022-08-19T01:12:07;24.23;;;19.48;;
44358;SDS011;30077;52.474;13.326;2022-08-19T01:17:09;21.35;;;18.98;;
44358;SDS011;30077;52.474;13.326;2022-08-19T01:22:19;24.43;;;20.07;;
44358;SDS011;30077;52.474;13.326;2022-08-19T01:27:40;21.75;;;19.23;;
44358;SDS011;30077;52.474;13.326;2022-08-19T01:32:42;24.30;;;21.05;;
44358;SDS011;30077;52.474;13.326;2022-08-19T01:37:44;23.75;;;21.20;;
44358;SDS011;30077;52.474;13.326;2022-08-19T01:42:47;26.60;;;23.10;;
44358;SDS011;30077;52.474;13.326;2022-08-19T01:52:49;26.38;;;22.83;;
44358;SDS011;30077;52.474;13.326;2022-08-19T01:57:51;29.35;;;24.90;;
44358;SDS011;30077;52.474;13.326;2022-08-19T02:02:57;30.55;;;26.88;;
44358;SDS011;30077;52.474;13.326;2022-08-19T02:07:58;40.20;;;28.70;;
44358;SDS011;30077;52.474;13.326;2022-08-19T02:12:59;42.70;;;29.60;;
44358;SDS011;30077;52.474;13.326;2022-08-19T02:17:59;35.53;;;28.30;;
44358;SDS011;30077;52.474;13.326;2022-08-19T02:22:59;42.38;;;30.88;;
44358;SDS011;30077;52.474;13.326;2022-08-19T02:28:01;33.20;;;27.42;;
44358;SDS011;30077;52.474;13.326;2022-08-19T02:33:01;34.13;;;27.38;;
44358;SDS011;30077;52.474;13.326;2022-08-19T02:38:02;29.33;;;24.40;;
44358;SDS011;30077;52.474;13.326;2022-08-19T02:43:21;32.80;;;27.85;;
44358;SDS011;30077;52.474;13.326;2022-08-19T02:48:23;33.85;;;28.98;;
44358;SDS011;30077;52.474;13.326;2022-08-19T02:53:26;34.67;;;29.58;;
44358;SDS011;30077;52.474;13.326;2022-08-19T03:03:27;30.45;;;25.70;;
44358;SDS011;30077;52.474;13.326;2022-08-19T03:08:28;31.60;;;27.67;;
44358;SDS011;30077;52.474;13.326;2022-08-19T03:13:28;30.80;;;27.17;;
44358;SDS011;30077;52.474;13.326;2022-08-19T03:18:29;28.33;;;25.33;;
44358;SDS011;30077;52.474;13.326;2022-08-19T03:23:29;30.60;;;27.27;;
44358;SDS011;30077;52.474;13.326;2022-08-19T03:28:29;34.50;;;29.30;;
44358;SDS011;30077;52.474;13.326;2022-08-19T03:33:30;32.13;;;28.08;;
44358;SDS011;30077;52.474;13.326;2022-08-19T03:38:33;34.58;;;30.15;;
44358;SDS011;30077;52.474;13.326;2022-08-19T03:43:35;37.13;;;29.63;;
44358;SDS011;30077;52.474;13.326;2022-08-19T03:48:37;35.80;;;29.92;;
44358;SDS011;30077;52.474;13.326;2022-08-19T03:53:39;38.78;;;32.50;;
44358;SDS011;30077;52.474;13.326;2022-08-19T03:58:39;36.60;;;31.25;;
44358;SDS011;30077;52.474;13.326;2022-08-19T04:03:40;36.03;;;31.55;;
44358;SDS011;30077;52.474;13.326;2022-08-19T04:08:41;36.33;;;29.98;;
44358;SDS011;30077;52.474;13.326;2022-08-19T04:13:42;36.40;;;28.73;;
44358;SDS011;30077;52.474;13.326;2022-08-19T04:18:46;35.53;;;27.23;;
44358;SDS011;30077;52.474;13.326;2022-08-19T04:23:47;38.17;;;28.40;;
44358;SDS011;30077;52.474;13.326;2022-08-19T04:28:48;32.60;;;28.35;;
44358;SDS011;30077;52.474;13.326;2022-08-19T04:33:49;32.83;;;28.13;;
44358;SDS011;30077;52.474;13.326;2022-08-19T04:38:49;30.93;;;27.70;;
44358;SDS011;30077;52.474;13.326;2022-08-19T04:43:54;32.53;;;28.30;;
44358;SDS011;30077;52.474;13.326;2022-08-19T04:48:54;29.45;;;26.02;;
44358;SDS011;30077;52.474;13.326;2022-08-19T04:53:56;32.63;;;26.73;;
44358;SDS011;30077;52.474;13.326;2022-08-19T04:58:57;29.48;;;25.73;;
44358;SDS011;30077;52.474;13.326;2022-08-19T05:03:58;27.15;;;24.25;;
44358;SDS011;30077;52.474;13.326;2022-08-19T05:09:00;26.38;;;21.95;;
44358;SDS011;30077;52.474;13.326;2022-08-19T05:19:03;22.60;;;20.20;;
44358;SDS011;30077;52.474;13.326;2022-08-19T05:24:22;23.20;;;20.67;;
44358;SDS011;30077;52.474;13.326;2022-08-19T05:29:24;25.27;;;21.48;;
44358;SDS011;30077;52.474;13.326;2022-08-19T05:34:26;24.60;;;21.98;;
44358;SDS011;30077;52.474;13.326;2022-08-19T05:39:28;25.58;;;22.85;;
44358;SDS011;30077;52.474;13.326;2022-08-19T05:44:31;27.73;;;23.63;;
44358;SDS011;30077;52.474;13.326;2022-08-19T05:49:33;27.55;;;23.95;;
44358;SDS011;30077;52.474;13.326;2022-08-19T05:54:39;26.92;;;23.05;;
44358;SDS011;30077;52.474;13.326;2022-08-19T05:59:42;23.90;;;21.35;;
44358;SDS011;30077;52.474;13.326;2022-08-19T06:04:43;26.00;;;21.17;;
44358;SDS011;30077;52.474;13.326;2022-08-19T06:09:44;24.47;;;21.07;;
44358;SDS011;30077;52.474;13.326;2022-08-19T06:14:44;33.90;;;24.20;;
44358;SDS011;30077;52.474;13.326;2022-08-19T06:19:45;27.27;;;24.35;;
44358;SDS011;30077;52.474;13.326;2022-08-19T06:24:45;28.03;;;23.63;;
44358;SDS011;30077;52.474;13.326;2022-08-19T06:29:45;26.83;;;23.80;;
44358;SDS011;30077;52.474;13.326;2022-08-19T06:34:46;26.73;;;23.80;;
44358;SDS011;30077;52.474;13.326;2022-08-19T06:39:47;30.63;;;25.58;;
44358;SDS011;30077;52.474;13.326;2022-08-19T06:44:48;29.88;;;23.95;;
44358;SDS011;30077;52.474;13.326;2022-08-19T06:49:49;29.13;;;24.75;;
44358;SDS011;30077;52.474;13.326;2022-08-19T06:54:49;27.38;;;22.02;;
44358;SDS011;30077;52.474;13.326;2022-08-19T06:59:49;25.67;;;23.13;;
44358;SDS011;30077;52.474;13.326;2022-08-19T07:04:50;25.05;;;21.63;;
44358;SDS011;30077;52.474;13.326;2022-08-19T07:09:50;28.27;;;22.60;;
44358;SDS011;30077;52.474;13.326;2022-08-19T07:14:53;25.90;;;21.90;;
44358;SDS011;30077;52.474;13.326;2022-08-19T07:19:53;24.30;;;21.60;;
44358;SDS011;30077;52.474;13.326;2022-08-19T07:24:54;25.58;;;21.60;;
44358;SDS011;30077;52.474;13.326;2022-08-19T07:29:54;28.73;;;21.73;;
44358;SDS011;30077;52.474;13.326;2022-08-19T07:34:55;25.45;;;22.75;;
44358;SDS011;30077;52.474;13.326;2022-08-19T07:39:55;27.58;;;23.65;;
44358;SDS011;30077;52.474;13.326;2022-08-19T07:44:55;24.80;;;22.20;;
44358;SDS011;30077;52.474;13.326;2022-08-19T07:49:56;25.20;;;22.60;;
44358;SDS011;30077;52.474;13.326;2022-08-19T07:54:56;24.30;;;21.75;;
44358;SDS011;30077;52.474;13.326;2022-08-19T07:59:57;24.88;;;21.50;;
44358;SDS011;30077;52.474;13.326;2022-08-19T08:04:57;25.53;;;23.00;;
44358;SDS011;30077;52.474;13.326;2022-08-19T08:10:17;28.23;;;23.98;;
44358;SDS011;30077;52.474;13.326;2022-08-19T08:15:17;27.25;;;24.35;;
44358;SDS011;30077;52.474;13.326;2022-08-19T08:20:18;27.25;;;24.23;;
44358;SDS011;30077;52.474;13.326;2022-08-19T08:25:20;27.92;;;23.90;;
44358;SDS011;30077;52.474;13.326;2022-08-19T08:30:24;28.42;;;25.17;;
44358;SDS011;30077;52.474;13.326;2022-08-19T08:35:25;28.75;;;25.83;;
44358;SDS011;30077;52.474;13.326;2022-08-19T08:45:47;29.90;;;26.80;;
44358;SDS011;30077;52.474;13.326;2022-08-19T08:50:56;27.02;;;24.40;;
44358;SDS011;30077;52.474;13.326;2022-08-19T08:56:00;31.00;;;27.88;;
44358;SDS011;30077;52.474;13.326;2022-08-19T09:01:03;30.77;;;27.52;;
44358;SDS011;30077;52.474;13.326;2022-08-19T09:06:04;34.05;;;27.98;;
44358;SDS011;30077;52.474;13.326;2022-08-19T09:11:15;29.92;;;26.83;;
44358;SDS011;30077;52.474;13.326;2022-08-19T09:16:25;33.17;;;26.98;;
44358;SDS011;30077;52.474;13.326;2022-08-19T09:21:27;32.35;;;26.92;;
44358;SDS011;30077;52.474;13.326;2022-08-19T09:26:28;27.98;;;24.83;;
44358;SDS011;30077;52.474;13.326;2022-08-19T09:31:28;25.10;;;22.70;;
44358;SDS011;30077;52.474;13.326;2022-08-19T09:36:29;23.83;;;21.42;;
44358;SDS011;30077;52.474;13.326;2022-08-19T09:41:32;31.98;;;22.70;;
44358;SDS011;30077;52.474;13.326;2022-08-19T09:46:32;26.00;;;23.13;;
44358;SDS011;30077;52.474;13.326;2022-08-19T09:51:33;25.25;;;22.75;;
44358;SDS011;30077;52.474;13.326;2022-08-19T09:56:34;24.43;;;20.70;;
44358;SDS011;30077;52.474;13.326;2022-08-19T10:01:35;28.20;;;25.10;;
44358;SDS011;30077;52.474;13.326;2022-08-19T10:06:36;23.45;;;21.13;;
44358;SDS011;30077;52.474;13.326;2022-08-19T10:11:39;24.70;;;22.17;;
44358;SDS011;30077;52.474;13.326;2022-08-19T10:16:47;22.77;;;20.30;;
44358;SDS011;30077;52.474;13.326;2022-08-19T10:21:49;22.17;;;19.77;;
44358;SDS011;30077;52.474;13.326;2022-08-19T10:26:49;21.88;;;19.55;;
44358;SDS011;30077;52.474;13.326;2022-08-19T10:31:49;22.52;;;20.00;;
44358;SDS011;30077;52.474;13.326;2022-08-19T10:36:50;21.05;;;18.95;;
44358;SDS011;30077;52.474;13.326;2022-08-19T10:41:51;24.50;;;18.98;;
44358;SDS011;30077;52.474;13.326;2022-08-19T10:46:52;20.70;;;18.50;;
44358;SDS011;30077;52.474;13.326;2022-08-19T10:51:52;23.25;;;20.60;;
44358;SDS011;30077;52.474;13.326;2022-08-19T10:57:11;24.92;;;21.25;;
44358;SDS011;30077;52.474;13.326;2022-08-19T11:02:11;24.02;;;21.40;;
44358;SDS011;30077;52.474;13.326;2022-08-19T11:07:12;23.38;;;20.90;;
44358;SDS011;30077;52.474;13.326;2022-08-19T11:12:13;22.95;;;20.50;;
44358;SDS011;30077;52.474;13.326;2022-08-19T11:17:14;23.65;;;20.48;;
44358;SDS011;30077;52.474;13.326;2022-08-19T11:22:15;23.33;;;20.75;;
44358;SDS011;30077;52.474;13.326;2022-08-19T11:27:16;21.90;;;19.60;;
44358;SDS011;30077;52.474;13.326;2022-08-19T11:32:17;21.02;;;18.75;;
44358;SDS011;30077;52.474;13.326;2022-08-19T11:37:18;19.90;;;17.80;;
44358;SDS011;30077;52.474;13.326;2022-08-19T11:42:18;23.90;;;19.15;;
44358;SDS011;30077;52.474;13.326;2022-08-19T11:47:37;19.25;;;17.45;;
44358;SDS011;30077;52.474;13.326;2022-08-19T11:52:38;18.63;;;16.77;;
44358;SDS011;30077;52.474;13.326;2022-08-19T11:57:39;17.07;;;15.33;;
44358;SDS011;30077;52.474;13.326;2022-08-19T12:02:41;23.52;;;15.55;;
44358;SDS011;30077;52.474;13.326;2022-08-19T12:07:42;17.13;;;15.43;;
44358;SDS011;30077;52.474;13.326;2022-08-19T12:12:42;17.13;;;15.40;;
44358;SDS011;30077;52.474;13.326;2022-08-19T12:17:45;16.58;;;15.00;;
44358;SDS011;30077;52.474;13.326;2022-08-19T12:22:45;14.83;;;13.33;;
44358;SDS011;30077;52.474;13.326;2022-08-19T12:27:46;18.63;;;14.03;;
44358;SDS011;30077;52.474;13.326;2022-08-19T12:32:47;15.38;;;13.88;;
44358;SDS011;30077;52.474;13.326;2022-08-19T12:37:47;15.68;;;14.02;;
44358;SDS011;30077;52.474;13.326;2022-08-19T12:42:48;14.88;;;13.40;;
44358;SDS011;30077;52.474;13.326;2022-08-19T12:47:49;16.35;;;13.50;;
44358;SDS011;30077;52.474;13.326;2022-08-19T12:52:49;13.43;;;12.13;;
44358;SDS011;30077;52.474;13.326;2022-08-19T12:57:49;13.23;;;11.98;;
44358;SDS011;30077;52.474;13.326;2022-08-19T13:02:52;14.63;;;12.38;;
44358;SDS011;30077;52.474;13.326;2022-08-19T13:07:53;18.33;;;13.52;;
44358;SDS011;30077;52.474;13.326;2022-08-19T13:12:59;16.90;;;15.30;;
44358;SDS011;30077;52.474;13.326;2022-08-19T13:18:01;17.42;;;15.73;;
44358;SDS011;30077;52.474;13.326;2022-08-19T13:23:02;18.88;;;16.55;;
44358;SDS011;30077;52.474;13.326;2022-08-19T13:28:03;17.63;;;15.90;;
44358;SDS011;30077;52.474;13.326;2022-08-19T13:33:04;17.42;;;15.63;;
44358;SDS011;30077;52.474;13.326;2022-08-19T13:38:11;16.60;;;15.00;;
44358;SDS011;30077;52.474;13.326;2022-08-19T13:43:12;18.95;;;16.95;;
44358;SDS011;30077;52.474;13.326;2022-08-19T13:48:13;18.15;;;16.30;;
44358;SDS011;30077;52.474;13.326;2022-08-19T13:53:14;16.98;;;15.00;;
44358;SDS011;30077;52.474;13.326;2022-08-19T13:58:15;16.33;;;14.73;;
44358;SDS011;30077;52.474;13.326;2022-08-19T14:03:15;15.30;;;13.80;;
44358;SDS011;30077;52.474;13.326;2022-08-19T14:08:17;16.13;;;14.63;;
44358;SDS011;30077;52.474;13.326;2022-08-19T14:13:19;15.45;;;13.82;;
44358;SDS011;30077;52.474;13.326;2022-08-19T14:18:20;16.00;;;14.27;;
44358;SDS011;30077;52.474;13.326;2022-08-19T14:23:20;15.63;;;14.13;;
44358;SDS011;30077;52.474;13.326;2022-08-19T14:28:21;15.02;;;13.57;;
44358;SDS011;30077;52.474;13.326;2022-08-19T14:33:22;15.27;;;13.77;;
44358;SDS011;30077;52.474;13.326;2022-08-19T14:38:22;16.75;;;14.95;;
44358;SDS011;30077;52.474;13.326;2022-08-19T14:43:22;15.95;;;14.45;;
44358;SDS011;30077;52.474;13.326;2022-08-19T14:48:22;15.35;;;13.85;;
44358;SDS011;30077;52.474;13.326;2022-08-19T14:53:23;15.60;;;14.05;;
44358;SDS011;30077;52.474;13.326;2022-08-19T14:58:23;15.77;;;14.20;;
44358;SDS011;30077;52.474;13.326;2022-08-19T15:03:23;14.70;;;13.20;;
44358;SDS011;30077;52.474;13.326;2022-08-19T15:08:24;16.03;;;14.37;;
44358;SDS011;30077;52.474;13.326;2022-08-19T15:13:25;15.68;;;14.07;;
44358;SDS011;30077;52.474;13.326;2022-08-19T15:18:27;19.02;;;14.85;;
44358;SDS011;30077;52.474;13.326;2022-08-19T15:23:27;16.08;;;14.43;;
44358;SDS011;30077;52.474;13.326;2022-08-19T15:28:27;15.50;;;13.70;;
44358;SDS011;30077;52.474;13.326;2022-08-19T15:33:27;16.58;;;14.85;;
44358;SDS011;30077;52.474;13.326;2022-08-19T15:38:30;17.95;;;15.38;;
44358;SDS011;30077;52.474;13.326;2022-08-19T15:43:33;18.05;;;16.25;;
44358;SDS011;30077;52.474;13.326;2022-08-19T15:48:40;18.73;;;16.85;;
44358;SDS011;30077;52.474;13.326;2022-08-19T15:53:41;17.77;;;15.90;;
44358;SDS011;30077;52.474;13.326;2022-08-19T15:58:41;17.75;;;15.85;;
44358;SDS011;30077;52.474;13.326;2022-08-19T16:04:01;17.40;;;15.70;;
44358;SDS011;30077;52.474;13.326;2022-08-19T16:09:21;17.05;;;15.32;;
44358;SDS011;30077;52.474;13.326;2022-08-19T16:14:23;15.82;;;14.23;;
44358;SDS011;30077;52.474;13.326;2022-08-19T16:19:24;15.70;;;14.10;;
44358;SDS011;30077;52.474;13.326;2022-08-19T16:24:26;16.20;;;13.20;;
44358;SDS011;30077;52.474;13.326;2022-08-19T16:29:27;16.55;;;13.40;;
44358;SDS011;30077;52.474;13.326;2022-08-19T16:34:28;13.38;;;12.18;;
44358;SDS011;30077;52.474;13.326;2022-08-19T16:39:29;15.02;;;13.30;;
44358;SDS011;30077;52.474;13.326;2022-08-19T16:44:30;16.73;;;12.32;;
44358;SDS011;30077;52.474;13.326;2022-08-19T16:49:31;13.43;;;11.63;;
44358;SDS011;30077;52.474;13.326;2022-08-19T16:54:31;13.90;;;12.40;;
44358;SDS011;30077;52.474;13.326;2022-08-19T16:59:33;12.53;;;11.23;;
44358;SDS011;30077;52.474;13.326;2022-08-19T17:04:33;12.52;;;11.25;;
44358;SDS011;30077;52.474;13.326;2022-08-19T17:09:33;12.07;;;10.57;;
44358;SDS011;30077;52.474;13.326;2022-08-19T17:14:34;12.50;;;11.27;;
44358;SDS011;30077;52.474;13.326;2022-08-19T17:19:34;11.43;;;10.32;;
44358;SDS011;30077;52.474;13.326;2022-08-19T17:24:34;11.25;;;9.57;;
44358;SDS011;30077;52.474;13.326;2022-08-19T17:29:35;10.80;;;9.80;;
44358;SDS011;30077;52.474;13.326;2022-08-19T17:34:35;11.55;;;10.45;;
44358;SDS011;30077;52.474;13.326;2022-08-19T17:39:36;12.35;;;10.65;;
44358;SDS011;30077;52.474;13.326;2022-08-19T17:44:37;11.57;;;10.40;;
44358;SDS011;30077;52.474;13.326;2022-08-19T17:49:39;11.30;;;10.20;;
44358;SDS011;30077;52.474;13.326;2022-08-19T17:54:39;12.60;;;11.30;;
44358;SDS011;30077;52.474;13.326;2022-08-19T17:59:40;13.40;;;12.00;;
44358;SDS011;30077;52.474;13.326;2022-08-19T18:04:40;13.55;;;12.15;;
44358;SDS011;30077;52.474;13.326;2022-08-19T18:09:41;14.40;;;12.50;;
44358;SDS011;30077;52.474;13.326;2022-08-19T18:14:41;14.57;;;12.40;;
44358;SDS011;30077;52.474;13.326;2022-08-19T18:19:42;13.50;;;12.23;;
44358;SDS011;30077;52.474;13.326;2022-08-19T18:24:43;15.32;;;13.70;;
44358;SDS011;30077;52.474;13.326;2022-08-19T18:29:43;15.05;;;13.55;;
44358;SDS011;30077;52.474;13.326;2022-08-19T18:34:45;16.75;;;14.73;;
44358;SDS011;30077;52.474;13.326;2022-08-19T18:39:45;18.08;;;16.23;;
44358;SDS011;30077;52.474;13.326;2022-08-19T18:45:04;20.33;;;18.05;;
44358;SDS011;30077;52.474;13.326;2022-08-19T18:50:24;46.88;;;36.25;;
44358;SDS011;30077;52.474;13.326;2022-08-19T18:55:24;37.73;;;29.93;;
44358;SDS011;30077;52.474;13.326;2022-08-19T19:00:28;26.92;;;23.80;;
44358;SDS011;30077;52.474;13.326;2022-08-19T19:05:29;30.05;;;25.90;;
44358;SDS011;30077;52.474;13.326;2022-08-19T19:10:29;28.02;;;24.73;;
44358;SDS011;30077;52.474;13.326;2022-08-19T19:15:29;35.45;;;28.90;;
44358;SDS011;30077;52.474;13.326;2022-08-19T19:20:29;34.30;;;27.95;;
44358;SDS011;30077;52.474;13.326;2022-08-19T19:25:30;33.87;;;28.30;;
44358;SDS011;30077;52.474;13.326;2022-08-19T19:30:31;49.37;;;37.83;;
44358;SDS011;30077;52.474;13.326;2022-08-19T19:35:32;31.27;;;25.17;;
44358;SDS011;30077;52.474;13.326;2022-08-19T19:40:32;33.20;;;28.52;;
44358;SDS011;30077;52.474;13.326;2022-08-19T19:45:33;38.03;;;31.27;;
44358;SDS011;30077;52.474;13.326;2022-08-19T19:50:33;30.20;;;26.03;;
44358;SDS011;30077;52.474;13.326;2022-08-19T19:55:33;36.90;;;29.80;;
44358;SDS011;30077;52.474;13.326;2022-08-19T20:00:35;38.25;;;30.35;;
44358;SDS011;30077;52.474;13.326;2022-08-19T20:05:35;39.20;;;30.80;;
44358;SDS011;30077;52.474;13.326;2022-08-19T20:10:37;30.33;;;26.20;;
44358;SDS011;30077;52.474;13.326;2022-08-19T20:15:39;31.98;;;26.90;;
44358;SDS011;30077;52.474;13.326;2022-08-19T20:20:42;31.10;;;25.73;;
44358;SDS011;30077;52.474;13.326;2022-08-19T20:25:45;35.97;;;26.75;;
44358;SDS011;30077;52.474;13.326;2022-08-19T20:30:45;36.17;;;28.00;;
44358;SDS011;30077;52.474;13.326;2022-08-19T20:35:46;33.75;;;28.35;;
44358;SDS011;30077;52.474;13.326;2022-08-19T20:40:47;31.30;;;25.70;;
44358;SDS011;30077;52.474;13.326;2022-08-19T20:45:47;33.80;;;27.40;;
44358;SDS011;30077;52.474;13.326;2022-08-19T20:50:47;32.83;;;27.20;;
44358;SDS011;30077;52.474;13.326;2022-08-19T20:55:48;34.27;;;27.27;;
44358;SDS011;30077;52.474;13.326;2022-08-19T21:00:51;32.38;;;26.85;;
44358;SDS011;30077;52.474;13.326;2022-08-19T21:05:54;34.20;;;27.35;;
44358;SDS011;30077;52.474;13.326;2022-08-19T21:10:55;31.35;;;24.38;;
44358;SDS011;30077;52.474;13.326;2022-08-19T21:15:56;36.90;;;27.70;;
44358;SDS011;30077;52.474;13.326;2022-08-19T21:20:56;29.60;;;25.17;;
44358;SDS011;30077;52.474;13.326;2022-08-19T21:25:57;31.83;;;26.85;;
44358;SDS011;30077;52.474;13.326;2022-08-19T21:30:59;29.60;;;25.98;;
44358;SDS011;30077;52.474;13.326;2022-08-19T21:36:00;27.88;;;23.48;;
44358;SDS011;30077;52.474;13.326;2022-08-19T21:41:02;31.70;;;24.35;;
44358;SDS011;30077;52.474;13.326;2022-08-19T21:46:04;27.77;;;24.13;;
44358;SDS011;30077;52.474;13.326;2022-08-19T21:51:05;28.55;;;23.02;;
44358;SDS011;30077;52.474;13.326;2022-08-19T21:56:05;27.97;;;22.80;;
44358;SDS011;30077;52.474;13.326;2022-08-19T22:01:06;24.60;;;21.20;;
44358;SDS011;30077;52.474;13.326;2022-08-19T22:06:06;25.90;;;20.63;;
44358;SDS011;30077;52.474;13.326;2022-08-19T22:11:08;27.83;;;21.92;;
44358;SDS011;30077;52.474;13.326;2022-08-19T22:16:08;22.52;;;19.75;;
44358;SDS011;30077;52.474;13.326;2022-08-19T22:21:09;23.67;;;20.42;;
44358;SDS011;30077;52.474;13.326;2022-08-19T22:26:10;27.70;;;22.07;;
44358;SDS011;30077;52.474;13.326;2022-08-19T22:31:11;24.37;;;19.93;;
44358;SDS011;30077;52.474;13.326;2022-08-19T22:36:11;25.90;;;19.52;;
44358;SDS011;30077;52.474;13.326;2022-08-19T22:41:13;21.85;;;17.55;;
44358;SDS011;30077;52.474;13.326;2022-08-19T22:46:14;21.17;;;18.65;;
44358;SDS011;30077;52.474;13.326;2022-08-19T22:51:15;24.00;;;19.20;;
44358;SDS011;30077;52.474;13.326;2022-08-19T22:56:34;24.33;;;19.98;;
44358;SDS011;30077;52.474;13.326;2022-08-19T23:01:34;23.57;;;19.40;;
44358;SDS011;30077;52.474;13.326;2022-08-19T23:06:38;21.40;;;19.13;;
44358;SDS011;30077;52.474;13.326;2022-08-19T23:11:39;23.00;;;20.08;;
44358;SDS011;30077;52.474;13.326;2022-08-19T23:16:40;27.95;;;19.77;;
44358;SDS011;30077;52.474;13.326;2022-08-19T23:21:41;22.00;;;19.70;;
44358;SDS011;30077;52.474;13.326;2022-08-19T23:26:42;21.45;;;18.55;;
44358;SDS011;30077;52.474;13.326;2022-08-19T23:32:02;24.67;;;20.55;;
44358;SDS011;30077;52.474;13.326;2022-08-19T23:37:05;24.50;;;21.17;;
44358;SDS011;30077;52.474;13.326;2022-08-19T23:42:09;24.27;;;20.50;;
44358;SDS011;30077;52.474;13.326;2022-08-19T23:47:10;26.73;;;21.83;;
44358;SDS011;30077;52.474;13.326;2022-08-19T23:52:10;24.30;;;21.58;;
44358;SDS011;30077;52.474;13.326;2022-08-19T23:57:11;26.55;;;21.20;;
